Tiempo atmosférico en la estación meteorológica de Vejer De La Frontera, Cádiz (160 m.)



Fecha
DESCASC
Temp. máxima en grados centígrados (hora)
DESCASC
Temp. mínima en grados centígrados (hora)
DESCASC
Temp. media en grados centígrados
DESCASC
Racha de viento máxima en m/sg (hora)
DESCASC
Velocidad máxima media en intervalos de 10 minutos(hora)
DESCASC
Precipitaciones diarias en mm
DESCASC
Precipitaciones de 00:00 a 06:00 en mm
DESCASC
Precipitaciones de 06:00 a 12:00 en mm
DESCASC
Precipitaciones de 12:00 a 18:00 en mm
DESCASC
Precipitaciones de 18:00 a 24:00 en mm
DESCASC
26-11-2020 13 (15:20) 10 (11:50) 11.5 14.44 (11:20) 6.94 (11:20) 1.7 0.9 0.4 0.3 0.1
25-11-2020 -- (--) -- (--) -- 12.22 (12:20) 6.11 (12:20) 37.4 0 0 24.4 13
24-11-2020 -- (--) -- (--) -- 8.89 (15:20) 4.17 (00:30) 0 0 0 0 0
23-11-2020 -- (--) -- (--) -- 12.5 (12:40) 5.83 (13:20) 0 0 0 0 0
22-11-2020 -- (--) -- (--) -- 14.72 (01:50) 6.94 (01:40) 0 0 0 0 0
21-11-2020 -- (--) -- (--) -- 16.39 (14:40) 7.22 (12:40) 0 0 0 0 0
20-11-2020 -- (--) -- (--) -- 15.28 (03:30) 6.11 (05:10) 0 0 0 0 0
19-11-2020 -- (--) -- (--) -- 17.5 (10:50) 7.5 (10:50) 0 0 0 0 0
18-11-2020 -- (--) -- (--) -- 12.78 (18:50) 5.28 (14:10) 0 0 0 0 0
17-11-2020 -- (--) -- (--) -- 6.11 (19:30) 2.78 (22:50) 0.1 0.1 0 0 0
16-11-2020 -- (--) -- (--) -- 5.56 (14:20) 3.61 (15:40) 0 0 0 0 0
15-11-2020 28 (15:30) 15.9 (00:00) 21.9 4.17 (22:30) 2.22 (23:50) 0 0 0 0 0
14-11-2020 20.7 (16:10) 15.6 (00:00) 18.2 6.67 (10:40) 3.06 (10:40) 7.2 0.4 6.5 0.3 0
13-11-2020 23.7 (12:50) 15.9 (00:00) 19.8 8.61 (00:40) 4.17 (00:40) 0 0 0 0 0
12-11-2020 21.6 (14:20) 16 (00:00) 18.8 12.22 (14:30) 5.83 (14:20) 0 0 0 0 0
11-11-2020 21.3 (14:40) 15.8 (00:00) 18.5 13.89 (12:40) 6.39 (14:10) 0 0 0 0 0
10-11-2020 24 (14:40) 13.5 (00:00) 18.8 7.78 (23:59) 3.61 (23:50) 0 0 0 0 0
09-11-2020 21.1 (15:20) 15.4 (00:00) 18.3 6.11 (17:20) 3.33 (16:30) 7.5 0 7.5 0 0
08-11-2020 23.5 (14:20) 15.2 (00:00) 19.3 5.56 (12:00) 2.5 (11:50) 0 0 0 0 0
07-11-2020 21.4 (15:40) 14.5 (00:00) 17.9 14.44 (01:40) 7.22 (01:40) 4.2 4.2 0 0 0
06-11-2020 23.1 (12:40) 17.4 (00:00) 20.3 10.28 (23:40) 5 (07:20) 0.2 0.1 0 0 0.1
05-11-2020 24.3 (14:30) 14.4 (00:00) 19.3 13.06 (04:10) 6.39 (04:10) 7.2 6.9 0.3 0 0
04-11-2020 21.2 (15:00) 15.4 (00:00) 18.3 10.56 (06:10) 5 (23:30) 1.1 0 0.4 0.4 0.3
03-11-2020 23.8 (14:40) 15.5 (00:00) 19.6 6.11 (10:50) 3.61 (15:10) 0 0 0 0 0
02-11-2020 26.9 (14:40) 16 (00:00) 21.4 6.11 (12:20) 3.06 (12:20) 0 0 0 0 0
01-11-2020 25.3 (16:30) 15.9 (00:00) 20.6 5 (14:50) 2.78 (13:00) 0 0 0 0 0
31-10-2020 26.2 (14:00) 15.8 (00:00) 21 8.61 (02:30) 4.17 (15:50) 0 0 0 0 0
30-10-2020 23.9 (14:50) 15.9 (00:00) 19.9 12.78 (00:50) 6.11 (00:40) 0 0 0 0 0
29-10-2020 24.5 (14:50) 14.2 (00:00) 19.3 12.5 (15:50) 5.28 (15:30) 0 0 0 0 0
28-10-2020 25.5 (15:30) 14 (00:00) 19.8 6.94 (07:30) 3.33 (06:30) 0 0 0 0 0

Gráficas

Temp. máximas Temp. mínimas Temp. medias Precipitaciones Rachas de viento máximas Velocidades máximas media en intervalos de 10 minutos

Datos horarios

Fecha y hora oficial Temperatura (ºC) Velocidad del viento (km/h) Dirección del viento Racha (km/h) Dirección de racha Precipitación (mm) Presión (hPa) Tendencia (hPa) Humedad (%)
2020-11-26 23:00:00 10.3 5 Sudeste 11 Sudeste 0 986.2 0.4 83
2020-11-26 22:00:00 10.5 6 Sudeste 14 Sudeste 0 986 -- 80
2020-11-26 21:00:00 11 9 Sudeste 21 Sur 0 986.1 -- 78
2020-11-26 20:00:00 10.7 13 Sur 35 Sur 0 985.8 -- 74
2020-11-26 19:00:00 10.4 19 Sur 38 Sudoeste 0.1 985.8 -- 81
2020-11-26 18:00:00 12.1 17 Sudeste 42 Sudeste 0 985.2 -- 68
2020-11-26 17:00:00 12.5 19 Sur 40 Sudeste 0 984.9 -- 64
2020-11-26 16:00:00 11.9 22 Sur 44 Sudeste 0 984.7 -- 75
2020-11-26 15:00:00 12.3 18 Sur 37 Sudeste 0 984.9 -- 70
2020-11-26 14:00:00 12.1 19 Sur 42 Sur 0.2 984.9 -- 80
2020-11-26 13:00:00 10.8 13 Sudeste 31 Sudeste 0.1 985.5 -- 89
2020-11-26 12:00:00 10.1 11 Sur 52 Sur 0.3 986.5 -- 90
2020-11-26 11:00:00 12.1 23 Sur 48 Sur 0 986.3 -- 76
2020-11-26 10:00:00 11.7 23 Sur 47 Sur 0 985.9 -- 76
2020-11-26 09:00:00 11.6 23 Sur 46 Sudeste 0 985.4 -- 77
2020-11-26 08:00:00 11.7 19 Sur 48 Sur 0 985 -- 78
2020-11-26 07:00:00 11.9 18 Sur 40 Sur 0.1 984.7 -- 84
2020-11-26 06:00:00 11.8 13 Sur 28 Sudeste 0 984.9 -- 88
2020-11-26 05:00:00 11.7 15 Sudeste 29 Sudeste 0 984.9 -- 89
2020-11-26 04:00:00 11.7 13 Sur 29 Sur 0 985.6 -- 90
2020-11-26 03:00:00 11.5 13 Sur 23 Sudeste 0.2 986.2 -- 92
2020-11-26 02:00:00 11.5 13 Sudeste 23 Sudeste 0.6 987.1 -- 91
2020-11-26 01:00:00 11.8 8 Sur 19 Sudoeste 0.1 988.1 -- 91
2020-11-26 00:00:00 12.2 8 Sudoeste 16 Sudoeste 1.1 988.6 -- 91
2020-11-25 23:00:00 12.3 8 Oeste 35 Oeste 4.3 988.7 -- 93
2020-11-25 22:00:00 13 13 Sudeste 27 Sudeste 2.2 988.3 -- 94
2020-11-25 21:00:00 12.3 8 Sudeste 18 Sudeste 0.8 987.9 -- 94
2020-11-25 20:00:00 12.6 13 Sudeste 28 Sudeste 3.5 988.9 -- 94
2020-11-25 19:00:00 12.2 11 Sudeste 25 Sudeste 1.1 989 -- 94
2020-11-25 18:00:00 11.7 5 Nordeste 11 Sudeste 0.5 988.8 -- 94
2020-11-25 17:00:00 11.5 8 Sudeste 20 Este 2.1 989.7 -- 94
2020-11-25 16:00:00 12.2 7 Oeste 27 Oeste 6.8 990.2 -- 93
2020-11-25 15:00:00 12 15 Oeste 32 Sudoeste 10.2 990.4 -- 90
2020-11-25 14:00:00 13 10 Sur 34 Sudeste 4.3 991.1 -- 86
2020-11-25 13:00:00 -- 16 Sur 44 Sur 0.5 992.6 -- 90
2020-11-25 12:00:00 -- 18 Sur 41 Sur 0 993.4 -- 83
2020-11-25 11:00:00 -- 17 Sur -- -- -- 994 -- 84
2020-11-25 10:00:00 -- 19 Sur 40 Sur 0 994.6 -- 86
2020-11-25 09:00:00 -- 13 Sur 37 Sur 0 994.7 -- 89
2020-11-25 08:00:00 -- 13 Sur 30 Sur 0 994.7 -- 90
2020-11-25 07:00:00 -- 13 Sur 26 Sur 0 995.1 -- 91
2020-11-25 06:00:00 -- 12 Sur 23 Sur 0 995.4 -- 90
2020-11-25 05:00:00 -- 8 Sur 15 Sur 0 996.2 -- 77
2020-11-25 04:00:00 -- 6 Sudoeste 9 Sudoeste 0 996.7 -- 78
2020-11-25 03:00:00 -- 5 Oeste 11 Oeste 0 997.1 -- 79
2020-11-25 02:00:00 -- 6 Oeste 12 Oeste 0 997.8 -- 77
2020-11-25 01:00:00 -- 6 Oeste 17 Oeste 0 998.4 -- 76
2020-11-25 00:00:00 -- 11 Oeste 21 Sudoeste 0 998.4 -- 72
2020-11-24 23:00:00 -- 10 Sudoeste 18 Sudoeste 0 998.9 -- 79
2020-11-24 22:00:00 -- 10 Sudoeste 24 Oeste 0 998.9 -- 77
2020-11-24 21:00:00 -- 14 Oeste 23 Sudoeste 0 998.8 -- 74
2020-11-24 20:00:00 -- 10 Sudoeste 26 Sur 0 998.9 -- 82
2020-11-24 19:00:00 -- 8 Sur 24 Sur 0 998.9 -- 78
2020-11-24 18:00:00 -- 10 Sudeste 22 Sur 0 998.7 -- 76
2020-11-24 17:00:00 -- 9 Sur 21 Sur 0 998.9 -- 72
2020-11-24 16:00:00 -- 10 Sur 32 Sudeste 0 999 -- 65
2020-11-24 15:00:00 -- 12 Sur 27 Sudeste 0 999.5 -- 56
2020-11-24 14:00:00 -- 12 Sudeste 24 Sur 0 1000.4 -- 54
2020-11-24 13:00:00 -- 9 Sudeste 28 Sudeste 0 1001.3 -- 52
2020-11-24 12:00:00 -- 11 Sudeste 30 Sudeste 0 1002.1 -- 56
2020-11-24 11:00:00 -- 8 Sudeste 18 Este 0 1002.1 -- 66
2020-11-24 10:00:00 -- 8 Este 15 Este 0 1001.9 -- 73
2020-11-24 09:00:00 -- 10 Este 21 Este 0 1001.5 -- 79
2020-11-24 08:00:00 -- 9 Este 24 Este 0 1001.2 -- 79
2020-11-24 07:00:00 -- 11 Este 26 Este 0 1000.9 -- 79
2020-11-24 06:00:00 -- 14 Este 31 Este 0 1000.7 -- 77
2020-11-24 05:00:00 -- 10 Este 23 Este 0 1000.8 -- 76
2020-11-24 04:00:00 -- 14 Este 25 Este 0 1001.2 -- 75
2020-11-24 03:00:00 -- 12 Este 28 Este 0 1001.7 -- 76
2020-11-24 02:00:00 -- 12 Este 30 Este 0 1001.8 -- 75
2020-11-24 01:00:00 -- 15 Este 31 Este 0 1002 -- 74
2020-11-24 00:00:00 -- 13 Este 29 Este 0 1002.3 -- 74
2020-11-23 23:00:00 -- 14 Este 29 Sudeste 0 1002.7 -- 74
2020-11-23 22:00:00 -- 13 Este 32 Este 0 1002.5 -- 74
2020-11-23 21:00:00 -- 14 Este 27 Este 0 1002.5 -- 77
2020-11-23 20:00:00 -- 13 Este 30 Este 0 1002.5 -- 74
2020-11-23 19:00:00 -- 13 Este 32 Este 0 1002.4 -- 72
2020-11-23 18:00:00 -- 14 Este 41 Este 0 1002 -- 65
2020-11-23 17:00:00 -- 16 Este 40 Este 0 1002 -- 59
2020-11-23 16:00:00 -- 17 Este 37 Este 0 1001.7 -- 52
2020-11-23 15:00:00 -- 15 Este 44 Este 0 1001.8 -- 48
2020-11-23 14:00:00 -- 18 Este 45 Este 0 1002.4 -- 47
2020-11-23 13:00:00 -- 18 Este 45 Sudeste 0 1003.2 -- 50
2020-11-23 12:00:00 -- 17 Este 41 Este 0 1003.6 -- 56
2020-11-23 11:00:00 -- 17 Este 38 Este 0 1003.7 -- 60
2020-11-23 10:00:00 -- 14 Este 36 Este 0 1003.4 -- 64
2020-11-23 09:00:00 -- 15 Este 32 Este 0 1003 -- 68
2020-11-23 08:00:00 -- 14 Este 32 Este 0 1002.6 -- 69
2020-11-23 07:00:00 -- 13 Este 32 Este 0 1002.1 -- 68
2020-11-23 06:00:00 -- 14 Este 37 Este 0 1002.2 -- 68
2020-11-23 05:00:00 -- 14 Este 32 Este 0 1002.1 -- 67
2020-11-23 04:00:00 -- 13 Este 33 Este 0 1002.3 -- 68
2020-11-23 03:00:00 -- 13 Este 31 Este 0 1002.3 -- 67
2020-11-23 02:00:00 -- 11 Este 26 Este 0 1002.7 -- 72
2020-11-23 01:00:00 -- 10 Este 23 Este 0 1002.7 -- 74
2020-11-23 00:00:00 -- 10 Este 26 Este 0 1003.1 -- 72
2020-11-22 23:00:00 -- 13 Este 33 Este 0 1003.2 -- 66
2020-11-22 22:00:00 -- 15 Este 36 Este 0 1002.9 -- 65
2020-11-22 21:00:00 -- 13 Este 33 Este 0 1002.9 -- 66
2020-11-22 20:00:00 -- 15 Este 34 Este 0 1002.7 -- 61
2020-11-22 19:00:00 -- 10 Este 35 Este 0 1002.4 -- 62
2020-11-22 18:00:00 -- 14 Este 37 Este 0 1001.9 -- 54
2020-11-22 17:00:00 -- 16 Este 39 Este 0 1001.7 -- 45
2020-11-22 16:00:00 -- 16 Este 41 Este 0 1001.7 -- 43
2020-11-22 15:00:00 -- 17 Este 42 Este 0 1002 -- 43
2020-11-22 14:00:00 -- 19 Este 47 Este 0 1002.3 -- 44
2020-11-22 13:00:00 -- 20 Este 46 Este 0 1003 -- 44
2020-11-22 12:00:00 -- 16 Este 50 Este 0 1003.5 -- 46
2020-11-22 11:00:00 -- 20 Este 46 Este 0 1003.5 -- 52
2020-11-22 10:00:00 -- 17 Este 45 Este 0 1003.3 -- 52
2020-11-22 09:00:00 -- 17 Este 48 Este 0 1002.8 -- 58
2020-11-22 08:00:00 -- 19 Este 45 Sudeste 0 1002.5 -- 62
2020-11-22 07:00:00 -- 23 Este 45 Este 0 1002.1 -- 64
2020-11-22 06:00:00 -- 21 Este 42 Este 0 1001.8 -- 61
2020-11-22 05:00:00 -- 22 Este 49 Sudeste 0 1001.7 -- 64
2020-11-22 04:00:00 -- 23 Este 51 Este 0 1001.9 -- 62
2020-11-22 03:00:00 -- 23 Este 51 Este 0 1001.8 -- 66
2020-11-22 02:00:00 -- 21 Este 53 Este 0 1002 -- 68
2020-11-22 01:00:00 -- 21 Este 49 Este 0 1002.4 -- 67
2020-11-22 00:00:00 -- 19 Este 44 Este 0 1002.5 -- 68
2020-11-21 23:00:00 -- 23 Este 49 Este 0 1002.3 -- 69
2020-11-21 22:00:00 -- 18 Este 44 Este 0 1002 -- 76
2020-11-21 21:00:00 -- 19 Este 45 Este 0 1001.9 -- 76
2020-11-21 20:00:00 -- 17 Este 42 Este 0 1001.9 -- 79
2020-11-21 19:00:00 -- 18 Este 47 Este 0 1001.6 -- 77
2020-11-21 18:00:00 -- 17 Este 48 Sudeste 0 1001.1 -- 75
2020-11-21 17:00:00 -- 18 Este 49 Este 0 1001 -- 69
2020-11-21 16:00:00 -- 21 Este 57 Este 0 1000.7 -- 62
2020-11-21 15:00:00 -- 21 Este 59 Este 0 1000.8 -- 58
2020-11-21 14:00:00 -- 21 Este 57 Este 0 1001.2 -- 63
2020-11-21 13:00:00 -- 22 Este 53 Sudeste 0 1001.5 -- 62
2020-11-21 12:00:00 -- 22 Este 54 Este 0 1002.2 -- 62
2020-11-21 11:00:00 -- 23 Este 50 Este 0 1002.2 -- 66
2020-11-21 10:00:00 -- 17 Este 41 Sudeste 0 1002 -- 72
2020-11-21 09:00:00 -- 15 Este 38 Sudeste 0 1001.5 -- 81
2020-11-21 08:00:00 -- 17 Este 37 Este 0 1001 -- 84
2020-11-21 07:00:00 -- 18 Este 42 Este 0 1000.3 -- 85
2020-11-21 06:00:00 -- 18 Este 45 Este 0 1000.1 -- 83
2020-11-21 05:00:00 -- 18 Este 45 Este 0 1000.1 -- 84
2020-11-21 04:00:00 -- 17 Este 38 Sudeste 0 1000.4 -- 84
2020-11-21 03:00:00 -- 15 Este 36 Este 0 1000.3 -- 84
2020-11-21 02:00:00 -- 14 Este 32 Este 0 1000.7 -- 83
2020-11-21 01:00:00 -- 14 Este 40 Este 0 1001.2 -- 83
2020-11-21 00:00:00 -- 18 Este 42 Este 0 1001.1 -- 82
2020-11-20 23:00:00 -- 15 Este 31 Este 0 1001.2 -- 82
2020-11-20 22:00:00 -- 11 Este 22 Este 0 1001.6 -- 82
2020-11-20 21:00:00 -- 11 Este 29 Este 0 1001.5 -- 82
2020-11-20 20:00:00 -- 13 Este 36 Este 0 1001.5 -- 80
2020-11-20 19:00:00 -- 10 Este 26 Este 0 1001.4 -- 78
2020-11-20 18:00:00 -- 11 Este 34 Este 0 1001.2 -- 71
2020-11-20 17:00:00 -- 14 Este 39 Sudeste 0 1001.2 -- 64
2020-11-20 16:00:00 -- 17 Este 36 Este 0 1001.2 -- 59
2020-11-20 15:00:00 -- 14 Este 36 Este 0 1001.4 -- 57
2020-11-20 14:00:00 -- 15 Este 40 Este 0 1002.3 -- 59
2020-11-20 13:00:00 -- 14 Este 36 Este 0 1002.9 -- 62
2020-11-20 12:00:00 -- 14 Este 40 Este 0 1003.6 -- 65
2020-11-20 11:00:00 -- 16 Este 38 Este 0 1003.3 -- 70
2020-11-20 10:00:00 17.7 16 Este 42 Sudeste 0 1003.3 -- 75
2020-11-20 09:00:00 16.4 19 Este 43 Este 0 1003.1 -- 79
2020-11-20 08:00:00 16.3 17 Este 40 Este 0 1003.1 -- 79
2020-11-20 07:00:00 16.2 14 Este 45 Este 0 1003.3 -- 79
2020-11-20 06:00:00 16.3 18 Este 46 Sudeste 0 1003 -- 78
2020-11-20 05:00:00 16.3 21 Este 47 Este 0 1003.2 -- 77
2020-11-20 04:00:00 16.3 17 Este 55 Este 0 1003.5 -- 77
2020-11-20 03:00:00 15.8 18 Este 36 Sudeste 0 1004.1 -- 80
2020-11-20 02:00:00 16 11 Este 35 Sudeste 0 1004.8 -- 81
2020-11-20 01:00:00 16.1 14 Este 35 Este 0 1004.9 -- 83
2020-11-20 00:00:00 16 8 Este 33 Este 0 1005.8 -- 80
2020-11-19 23:00:00 16.1 18 Este 41 Este 0 1005.5 -- 80
2020-11-19 22:00:00 16.1 9 Este 46 Este 0 1005.6 -- 82
2020-11-19 21:00:00 16.2 16 Este 48 Este 0 1005.5 -- 81
2020-11-19 20:00:00 15.9 14 Este 35 Nordeste 0 1005.4 -- 78
2020-11-19 19:00:00 17.1 14 Este 39 Este 0 1005.7 -- 77
2020-11-19 18:00:00 17.7 15 Este 48 Este 0 1004.6 -- 74
2020-11-19 17:00:00 19.1 21 Este 54 Este 0 1004.1 -- 69
2020-11-19 16:00:00 19.7 21 Este 53 Este 0 1003.9 -- 65
2020-11-19 15:00:00 20.5 22 Este 45 Este 0 1004 -- 62
2020-11-19 14:00:00 20.2 14 Este 42 Sudeste 0 1004.8 -- 65
2020-11-19 13:00:00 19.6 18 Este 47 Sudeste 0 1005.5 -- 70
2020-11-19 12:00:00 19 20 Este 50 Este 0 1005.6 -- 72
2020-11-19 11:00:00 18.6 23 Este 63 Este 0 1004.9 -- 73
2020-11-19 10:00:00 17.5 21 Este 51 Este 0 1004.6 -- 78
2020-11-19 09:00:00 16.1 21 Este 45 Este 0 1003.5 -- 80
2020-11-19 08:00:00 16.1 16 Este 44 Este 0 1003.4 -- 80
2020-11-19 07:00:00 16.1 18 Este 38 Este 0 1002.8 -- 80
2020-11-19 06:00:00 16.2 17 Este 41 Este 0 1002.4 -- 81
2020-11-19 05:00:00 16.2 12 Este 35 Este 0 1002.5 -- 81
2020-11-19 04:00:00 16.1 14 Este 30 Este 0 1002.4 -- 81
2020-11-19 03:00:00 16 13 Este 50 Este 0 1002.7 -- 82
2020-11-19 02:00:00 16.1 19 Este 41 Este 0 1002.7 -- 81
2020-11-19 01:00:00 16.2 16 Este 46 Este 0 1002.9 -- 82
2020-11-19 00:00:00 16.1 13 Este 29 Este 0 1003 -- 81
2020-11-18 23:00:00 16.1 12 Este 35 Sudeste 0 1003.1 -- 80
2020-11-18 22:00:00 16 14 Este 33 Este 0 1003.1 -- 79
2020-11-18 21:00:00 16 13 Este 37 Este 0 1002.9 -- 78
2020-11-18 20:00:00 16.9 14 Este 40 Este 0 1002.8 -- 79
2020-11-18 19:00:00 17.5 15 Este 46 Este 0 1002.6 -- 76
2020-11-18 18:00:00 18.5 11 Este 36 Este 0 1002.1 -- 71
2020-11-18 17:00:00 20 14 Este 35 Este 0 1002.1 -- 69
2020-11-18 16:00:00 21.1 17 Este 38 Este 0 1002.3 -- 65
2020-11-18 15:00:00 21.7 16 Este 41 Sudeste 0 1002.3 -- 62
2020-11-18 14:00:00 22 18 Este 40 Este 0 1002.8 -- 60
2020-11-18 13:00:00 21.7 17 Este 38 Este 0 1003.6 -- 63
2020-11-18 12:00:00 21.3 15 Este 31 Este 0 1004.1 -- 68
2020-11-18 11:00:00 19.6 14 Este 34 Este 0 1004.3 -- 74
2020-11-18 10:00:00 18 16 Este 34 Este 0 1004 -- 79
2020-11-18 09:00:00 16.3 13 Este 27 Este 0 1003.7 -- 85
2020-11-18 08:00:00 15.9 14 Este 33 Sudeste 0 1003.5 -- 86
2020-11-18 07:00:00 15.9 14 Este 29 Este 0 1003.2 -- 88
2020-11-18 06:00:00 15.7 12 Este 31 Sudeste 0 1003.3 -- 87
2020-11-18 05:00:00 15.8 10 Este 22 Este 0 1002.8 -- 88
2020-11-18 04:00:00 15.7 8 Este 18 Este 0 1002.8 -- 89
2020-11-18 03:00:00 16.2 9 Este 19 Este 0 1003.2 -- 87
2020-11-18 02:00:00 15.9 4 Este 11 Nordeste 0 1003.7 -- 88
2020-11-18 01:00:00 16.2 6 Este 13 Este 0 1003.7 -- 86
2020-11-18 00:00:00 16 6 Nordeste 15 Este 0 1003.9 -- 84
2020-11-17 23:00:00 17.3 10 Este 21 Este 0 1004.2 -- 81
2020-11-17 22:00:00 18.2 8 Este 18 Este 0 1004.1 -- 76
2020-11-17 21:00:00 18.2 8 Este 18 Este 0 1003.9 -- 76
2020-11-17 20:00:00 18.9 9 Este 22 Este 0 1003.7 -- 71
2020-11-17 19:00:00 20.2 6 Este 13 Este 0 1003.5 -- 66
2020-11-17 18:00:00 22.3 5 Este 11 Este 0 1003.4 -- 62
2020-11-17 17:00:00 24.8 3 Este 13 Este 0 1003.3 -- 52
2020-11-17 16:00:00 26.1 3 Este 14 Este 0 1003.3 -- 49
2020-11-17 15:00:00 25.8 7 Este 18 Sudeste 0 1003.5 -- 48
2020-11-17 14:00:00 25.5 7 Este 18 Este 0 1003.7 -- 54
2020-11-17 13:00:00 24.3 8 Este 18 Este 0 1004.1 -- 53
2020-11-17 12:00:00 22.4 7 Este 16 Este 0 1004.6 -- 61
2020-11-17 11:00:00 20.7 7 Este 19 Este 0 1004.5 -- 68
2020-11-17 10:00:00 18.7 7 Este 18 Sudeste 0 1004.1 -- 73
2020-11-17 09:00:00 16.3 7 Este 18 Este 0 1003.5 -- 82
2020-11-17 08:00:00 15.8 6 Este 15 Sudeste 0 1003.2 -- 88
2020-11-17 07:00:00 15.7 5 Este 10 Este 0 1002.7 -- 94
2020-11-17 06:00:00 15.1 4 Nordeste 7 Nordeste 0.1 1002.2 -- 93
2020-11-17 05:00:00 16.3 0 Calma 8 Norte 0 1002 -- 90
2020-11-17 04:00:00 16.2 4 Norte 7 Norte 0 1002.4 -- 92
2020-11-17 03:00:00 16.1 0 Calma 5 Noroeste 0 1002.5 -- 89
2020-11-17 02:00:00 16.2 3 Oeste 5 Oeste 0 1002.5 -- 92
2020-11-17 01:00:00 16 2 Nordeste 5 Nordeste 0 1002.9 -- 90
2020-11-17 00:00:00 17.4 0 Calma 6 Nordeste 0 1003.1 -- 89
2020-11-16 23:00:00 18 2 Este 4 Este 0 1003.2 -- 84
2020-11-16 22:00:00 18 3 Nordeste 7 Este 0 1003 -- 81
2020-11-16 21:00:00 18.3 0 Calma 4 Este 0 1002.8 -- 76
2020-11-16 20:00:00 18.9 0 Calma 6 Noroeste 0 1002.5 -- 73
2020-11-16 19:00:00 18 5 Oeste 12 Oeste 0 1002 -- 86
2020-11-16 18:00:00 19.4 7 Oeste 18 Oeste 0 1001.6 -- 83
2020-11-16 17:00:00 21.4 10 Oeste 18 Oeste 0 1001.2 -- 76
2020-11-16 16:00:00 22.1 10 Oeste 20 Oeste 0 1001.4 -- 73
2020-11-16 15:00:00 22.8 10 Oeste 20 Oeste 0 1001.6 -- 70
2020-11-16 14:00:00 23 8 Oeste 15 Oeste 0 1002.1 -- 69
2020-11-16 13:00:00 22.2 6 Oeste 14 Oeste 0 1002.7 -- 75
2020-11-16 12:00:00 21.3 7 Oeste 14 Oeste 0 1003 -- 76
2020-11-16 11:00:00 20.7 4 Sudoeste 9 Sudoeste 0 1002.6 -- 79
2020-11-16 10:00:00 19.2 4 Sudoeste 7 Sudoeste 0 1002.3 -- 83
2020-11-16 09:00:00 17.8 0 Calma 5 Sur 0 1001.9 -- 79
2020-11-16 08:00:00 17.3 3 Sudeste 5 Sur 0 1001.1 -- 78
2020-11-16 07:00:00 17.7 3 Este 6 Sudeste 0 1000.7 -- 77
2020-11-16 06:00:00 18.1 0 Calma 15 Sudoeste 0 1000.8 -- 76
2020-11-16 05:00:00 18.7 7 Sudoeste 15 Sudoeste 0 1000.5 -- 70
2020-11-16 04:00:00 19.2 6 Sur 15 Sur 0 1000.6 -- 68
2020-11-16 03:00:00 19.5 8 Sur 16 Sudeste 0 1000.7 -- 66
2020-11-16 02:00:00 20.1 8 Sur 16 Sur 0 1001.1 -- 64
2020-11-16 01:00:00 20.5 8 Sur 15 Sur 0 1001 -- 62
2020-11-16 00:00:00 21.1 8 Sur 13 Sur 0 1001.2 -- 60
2020-11-15 23:00:00 21.5 7 Sur 15 Sur 0 1001.1 -- 58
2020-11-15 22:00:00 21.8 6 Sur 13 Sur 0 1001 -- 58
2020-11-15 21:00:00 22.3 6 Sur 10 Sur 0 1000.7 -- 56
2020-11-15 20:00:00 22.2 7 Sur 12 Sudeste 0 1000.2 -- 58
2020-11-15 19:00:00 23.1 5 Sur 10 Sur 0 999.8 -- 50
2020-11-15 18:00:00 24.7 5 Sur 9 Sur 0 999.5 -- 47
2020-11-15 17:00:00 26.6 3 Sudeste 12 Sudeste 0 999.5 -- 43
2020-11-15 16:00:00 27.2 6 Sudeste 13 Sur 0 999.4 -- 41
2020-11-15 15:00:00 27.5 6 Sudeste 14 Sur 0 999.5 -- 43
2020-11-15 14:00:00 26.3 4 Sudeste 13 Este 0 999.6 -- 49
2020-11-15 13:00:00 24.5 4 Sudeste 11 Sudeste 0 1000 -- 59
2020-11-15 12:00:00 21.7 7 Este 15 Este 0 1000.2 -- 70
2020-11-15 11:00:00 21 5 Este 12 Este 0 1000.4 -- 69
2020-11-15 10:00:00 18.6 5 Nordeste 10 Este 0 1000.5 -- 77
2020-11-15 09:00:00 18.2 5 Este 9 Este 0 1000 -- 77
2020-11-15 08:00:00 17.6 6 Este 10 Este 0 999.6 -- 80
2020-11-15 07:00:00 16.1 6 Nordeste 8 Nordeste 0 999.1 -- 83
2020-11-15 06:00:00 16.3 5 Nordeste 12 Este 0 999.1 -- 84
2020-11-15 05:00:00 16.2 6 Nordeste 9 Este 0 998.8 -- 85
2020-11-15 04:00:00 16.2 6 Este 10 Este 0 999.3 -- 84
2020-11-15 03:00:00 15.9 5 Este 7 Este 0 999.4 -- 87
2020-11-15 02:00:00 17 2 Este 6 Este 0 1000.3 -- 83
2020-11-15 01:00:00 16.9 3 Este 7 Nordeste 0 1000.4 -- 83
2020-11-15 00:00:00 17.5 4 Este 8 Nordeste 0 1000.6 -- 84
2020-11-14 23:00:00 17.6 4 Nordeste 8 Nordeste 0 1000.7 -- 86
2020-11-14 22:00:00 17.8 4 Nordeste 8 Este 0 1000.8 -- 85
2020-11-14 21:00:00 18.1 4 Nordeste 6 Este 0 1000.6 -- 85
2020-11-14 20:00:00 18.3 2 Norte 5 Este 0 1000.5 -- 86
2020-11-14 19:00:00 18.7 0 Calma 5 Oeste 0 1000 -- 86
2020-11-14 18:00:00 19.1 3 Oeste 11 Sudoeste 0 999.8 -- 82
2020-11-14 17:00:00 20.1 7 Sudoeste 15 Sur 0 999.3 -- 78
2020-11-14 16:00:00 20.6 7 Sur 15 Sudoeste 0 999.1 -- 78
2020-11-14 15:00:00 19.2 7 Sur 14 Sudeste 0 999.1 -- 84
2020-11-14 14:00:00 18.8 7 Sur 16 Sur 0 999.5 -- 92
2020-11-14 13:00:00 17.9 6 Sur 19 Sudeste 0.3 1000.2 -- 92
2020-11-14 12:00:00 17.2 7 Sudeste 21 Sudeste 0.7 1000.6 -- 92
2020-11-14 11:00:00 17.3 10 Sudeste 24 Sur 0.1 1000.1 -- 92
2020-11-14 10:00:00 17 10 Sudeste 21 Sudeste 0 999.7 -- 93
2020-11-14 09:00:00 15.7 9 Sur 20 Sur 4 999.2 -- 92
2020-11-14 08:00:00 17.3 7 Sur 17 Sur 1.7 998.8 -- 91
2020-11-14 07:00:00 17.4 8 Sur 19 Sudeste 0 998.1 -- 89
2020-11-14 06:00:00 17.6 8 Sudeste 18 Sudeste 0 997.8 -- 90
2020-11-14 05:00:00 17.5 9 Sur 19 Sur 0 997.8 -- 90
2020-11-14 04:00:00 17.4 8 Sur 16 Sur 0.2 998.2 -- 90
2020-11-14 03:00:00 17.3 7 Sudeste 17 Sudeste 0.2 998.4 -- 89
2020-11-14 02:00:00 17.6 8 Sudeste 17 Sudeste 0 998.7 -- 85
2020-11-14 01:00:00 18 9 Sudeste 20 Sur 0 998.8 -- 83
2020-11-14 00:00:00 18.2 10 Sudeste 24 Sudeste 0 999 -- 81
2020-11-13 23:00:00 18.3 12 Sudeste 23 Sur 0 998.9 -- 80
2020-11-13 22:00:00 18.4 8 Sur 18 Sudeste 0 998.5 -- 76
2020-11-13 21:00:00 18 4 Sudeste 12 Sudeste 0 998.4 -- 76
2020-11-13 20:00:00 18.2 7 Este 12 Este 0 998.2 -- 76
2020-11-13 19:00:00 18.6 7 Sudeste 15 Este 0 997.7 -- 75
2020-11-13 18:00:00 19.5 7 Este 13 Sudeste 0 997.4 -- 74
2020-11-13 17:00:00 20.4 7 Sudeste 17 Sudeste 0 997.1 -- 70
2020-11-13 16:00:00 20.8 10 Sudeste 22 Sudeste 0 997.1 -- 65
2020-11-13 15:00:00 20.8 10 Sudeste 23 Sudeste 0 997.3 -- 59
2020-11-13 14:00:00 21.3 14 Sudeste 25 Sudeste 0 997.6 -- 55
2020-11-13 13:00:00 23.3 11 Sudeste 25 Sudeste 0 998.1 -- 47
2020-11-13 12:00:00 22.8 9 Sudeste 22 Sudeste 0 998.8 -- 51
2020-11-13 11:00:00 20.7 6 Sudeste 15 Este 0 998.8 -- 63
2020-11-13 10:00:00 19.1 6 Este 14 Este 0 998.3 -- 73
2020-11-13 09:00:00 16 6 Este 14 Sudeste 0 997.5 -- 80
2020-11-13 08:00:00 16.2 7 Este 11 Sudeste 0 997 -- 81
2020-11-13 07:00:00 16 8 Este 15 Sudeste 0 996.7 -- 81
2020-11-13 06:00:00 16 8 Este 17 Sudeste 0 996.3 -- 82
2020-11-13 05:00:00 16.1 10 Este 20 Este 0 996.2 -- 82
2020-11-13 04:00:00 16.1 10 Este 22 Sudeste 0 996.3 -- 83
2020-11-13 03:00:00 16.1 11 Este 24 Este 0 996.5 -- 82
2020-11-13 02:00:00 16.1 13 Este 22 Este 0 996.4 -- 82
2020-11-13 01:00:00 15.9 13 Este 31 Este 0 996.7 -- 81
2020-11-13 00:00:00 17.1 14 Este 31 Este 0 996.7 -- 79
2020-11-12 23:00:00 16.6 13 Este 24 Este 0 996.8 -- 79
2020-11-12 22:00:00 17.3 14 Este 34 Este 0 996.5 -- 80
2020-11-12 21:00:00 17.2 14 Este 33 Este 0 996.4 -- 79
2020-11-12 20:00:00 17.1 13 Este 36 Sudeste 0 996.4 -- 79
2020-11-12 19:00:00 17.2 16 Este 36 Este 0 995.8 -- 80
2020-11-12 18:00:00 18 18 Este 33 Este 0 995.6 -- 76
2020-11-12 17:00:00 20.1 16 Este 36 Este 0 995.7 -- 66
2020-11-12 16:00:00 20.9 17 Este 38 Este 0 995.7 -- 65
2020-11-12 15:00:00 21.3 17 Este 44 Sudeste 0 995.8 -- 63
2020-11-12 14:00:00 21.4 15 Este 42 Sudeste 0 996.3 -- 63
2020-11-12 13:00:00 20.2 18 Este 41 Este 0 996.8 -- 67
2020-11-12 12:00:00 20.1 13 Este 41 Sudeste 0 997.4 -- 71
2020-11-12 11:00:00 19.3 14 Este 39 Este 0 997.4 -- 72
2020-11-12 10:00:00 18 16 Este 37 Este 0 997.8 -- 78
2020-11-12 09:00:00 16.3 14 Este 36 Este 0 997.8 -- 84
2020-11-12 08:00:00 16.1 13 Este 38 Este 0 997.5 -- 85
2020-11-12 07:00:00 16.3 12 Este 36 Este 0 996.9 -- 84
2020-11-12 06:00:00 16.2 17 Este 37 Este 0 997.2 -- 83
2020-11-12 05:00:00 16.2 15 Este 38 Este 0 997.3 -- 84
2020-11-12 04:00:00 16.1 15 Este 33 Este 0 997.5 -- 83
2020-11-12 03:00:00 16.3 15 Este 35 Este 0 998.1 -- 84
2020-11-12 02:00:00 16.3 14 Este 33 Este 0 998.3 -- 84
2020-11-12 01:00:00 16.2 15 Este 35 Este 0 998.9 -- 85
2020-11-12 00:00:00 16.3 14 Este 36 Este 0 999 -- 84
2020-11-11 23:00:00 16.3 14 Este 35 Este 0 999.1 -- 84
2020-11-11 22:00:00 16.1 13 Este 34 Este 0 999.1 -- 84
2020-11-11 21:00:00 16 12 Este 35 Este 0 999 -- 84
2020-11-11 20:00:00 15.9 13 Este 31 Este 0 998.9 -- 83
2020-11-11 19:00:00 17 12 Este 38 Este 0 998.8 -- 81
2020-11-11 18:00:00 17.8 15 Este 41 Este 0 998.3 -- 78
2020-11-11 17:00:00 18.7 18 Este 42 Este 0 998.2 -- 72
2020-11-11 16:00:00 20.2 17 Este 46 Sudeste 0 997.8 -- 65
2020-11-11 15:00:00 20.8 17 Este 48 Sudeste 0 998.3 -- 64
2020-11-11 14:00:00 19.9 22 Este 48 Este 0 998.6 -- 68
2020-11-11 13:00:00 20.4 21 Este 50 Sudeste 0 999.3 -- 66
2020-11-11 12:00:00 20.3 19 Este 48 Este 0 999.9 -- 68
2020-11-11 11:00:00 19.2 19 Este 43 Este 0 1000.1 -- 72
2020-11-11 10:00:00 17.4 18 Este 43 Este 0 1000.1 -- 81
2020-11-11 09:00:00 16 14 Este 37 Este 0 1000.1 -- 82
2020-11-11 08:00:00 16.3 15 Este 32 Este 0 999.8 -- 84
2020-11-11 07:00:00 16.1 15 Este 36 Este 0 999.6 -- 83
2020-11-11 06:00:00 15.9 14 Este 31 Este 0 1000.1 -- 83
2020-11-11 05:00:00 16.1 12 Este 35 Este 0 1000.3 -- 82
2020-11-11 04:00:00 16.2 12 Este 30 Este 0 1000.7 -- 82
2020-11-11 03:00:00 16.1 12 Este 29 Este 0 1001.3 -- 82
2020-11-11 02:00:00 16.2 10 Este 47 Sudeste 0 1001.7 -- 82
2020-11-11 01:00:00 16.1 12 Este 33 Este 0 1001.3 -- 84
2020-11-11 00:00:00 16.1 12 Este 28 Sudeste 0 1001.6 -- 83
2020-11-10 23:00:00 16.3 10 Este 22 Este 0 1002.1 -- 84
2020-11-10 22:00:00 16.1 8 Este 25 Este 0 1001.9 -- 82
2020-11-10 21:00:00 15.9 8 Este 22 Este 0 1001.6 -- 79
2020-11-10 20:00:00 17.5 8 Este 21 Este 0 1001.3 -- 69
2020-11-10 19:00:00 18.5 8 Este 18 Este 0 1001.3 -- 64
2020-11-10 18:00:00 19.8 7 Este 20 Este 0 1001.1 -- 58
2020-11-10 17:00:00 21.6 9 Este 20 Este 0 1000.8 -- 51
2020-11-10 16:00:00 23.1 6 Este 16 Este 0 1000.6 -- 51
2020-11-10 15:00:00 23.4 6 Este 18 Este 0 1000.7 -- 49
2020-11-10 14:00:00 22.8 6 Este 19 Este 0 1001.3 -- 51
2020-11-10 13:00:00 21.3 6 Nordeste 17 Nordeste 0 1002.1 -- 52
2020-11-10 12:00:00 20 5 Este 10 Este 0 1002.4 -- 59
2020-11-10 11:00:00 18 4 Nordeste 12 Nordeste 0 1002.5 -- 61
2020-11-10 10:00:00 16.1 5 Nordeste 10 Nordeste 0 1002.7 -- 68
2020-11-10 09:00:00 14.5 3 Nordeste 7 Este 0 1002.1 -- 74
2020-11-10 08:00:00 13.6 3 Nordeste 12 Este 0 1001.4 -- 79
2020-11-10 07:00:00 14.4 4 Nordeste 14 Norte 0 1001.1 -- 78
2020-11-10 06:00:00 14.6 5 Norte 17 Norte 0 1000.9 -- 80
2020-11-10 05:00:00 15 8 Norte 18 Norte 0 1000.8 -- 81
2020-11-10 04:00:00 14.8 10 Norte 21 Norte 0 1001 -- 87
2020-11-10 03:00:00 14.9 9 Norte 20 Norte 0 1001.5 -- 91
2020-11-10 02:00:00 15.1 8 Norte 17 Norte 0 1001.5 -- 89
2020-11-10 01:00:00 15.3 9 Norte 20 Norte 0 1001.8 -- 88
2020-11-10 00:00:00 16.2 9 Norte 21 Norte 0 1002.1 -- 82
2020-11-09 23:00:00 16.3 5 Noroeste 14 Noroeste 0 1002.4 -- 83
2020-11-09 22:00:00 16.2 5 Noroeste 12 Noroeste 0 1002 -- 82
2020-11-09 21:00:00 16 6 Noroeste 17 Oeste 0 1001.8 -- 77
2020-11-09 20:00:00 16.8 8 Noroeste 15 Noroeste 0 1001.9 -- 70
2020-11-09 19:00:00 17.2 9 Oeste 19 Oeste 0 1001.4 -- 74
2020-11-09 18:00:00 18.3 11 Oeste 22 Sudoeste 0 1001.2 -- 73
2020-11-09 17:00:00 -- -- -- -- -- -- -- -- --
2020-11-09 16:00:00 20.7 10 Oeste 19 Sudoeste 0 1000.8 -- 67
2020-11-09 15:00:00 20.6 10 Oeste 19 Oeste 0 1000.8 -- 72
2020-11-09 14:00:00 20.1 11 Oeste 17 Sudoeste 0 1000.9 -- 76
2020-11-09 13:00:00 19.6 5 Oeste 12 Sudoeste 0 1001.5 -- 77
2020-11-09 12:00:00 18.6 3 Sudoeste 10 Sudoeste 0 1002.1 -- 84
2020-11-09 11:00:00 17.6 6 Sudoeste 13 Sudoeste 0 1002 -- 90
2020-11-09 10:00:00 16.6 5 Sudoeste 9 Sudoeste 0 1001.7 -- 93
2020-11-09 09:00:00 16.2 3 Sudoeste 14 Sudoeste 1.8 1001 -- 93
2020-11-09 08:00:00 15.7 8 Oeste 20 Oeste 5.6 1000.4 -- 92
2020-11-09 07:00:00 15.6 5 Sudeste 10 Sur 0.1 1000 -- 89
2020-11-09 06:00:00 15.5 7 Sur 13 Sur 0 999.6 -- 89
2020-11-09 05:00:00 15.6 6 Sur 11 Sur 0 999.5 -- 87
2020-11-09 04:00:00 15.8 6 Sudeste 10 Sur 0 999.4 -- 83
2020-11-09 03:00:00 15.8 4 Sudeste 7 Sudeste 0 999.7 -- 77
2020-11-09 02:00:00 16.1 3 Este 5 Este 0 999.6 -- 78
2020-11-09 01:00:00 16.2 0 Calma 4 Nordeste 0 1000.3 -- 78
2020-11-09 00:00:00 16.1 0 Calma 7 Norte 0 1000.4 -- 84
2020-11-08 23:00:00 16.2 4 Norte 7 Norte 0 1000.4 -- 78
2020-11-08 22:00:00 16 3 Norte 8 Sur 0 1000.1 -- 78
2020-11-08 21:00:00 17.2 5 Sur 9 Sur 0 1000.1 -- 80
2020-11-08 20:00:00 17.4 4 Sudoeste 12 Sur 0 999.8 -- 79
2020-11-08 19:00:00 17.8 6 Sur 10 Sur 0 999.7 -- 79
2020-11-08 18:00:00 20 7 Sudoeste 14 Sudoeste 0 999.5 -- 62
2020-11-08 17:00:00 22 9 Sudoeste 16 Sudoeste 0 999.4 -- 53
2020-11-08 16:00:00 23 8 Sudoeste 17 Oeste 0 999.2 -- 52
2020-11-08 15:00:00 23.4 5 Sudoeste 17 Sudoeste 0 999.3 -- 50
2020-11-08 14:00:00 22.8 6 Sudoeste 16 Sudoeste 0 999.7 -- 52
2020-11-08 13:00:00 22.1 9 Sudoeste 18 Sudoeste 0 1000.2 -- 53
2020-11-08 12:00:00 22.4 8 Sudeste 20 Sudeste 0 1000.9 -- 54
2020-11-08 11:00:00 20.4 6 Sudeste 13 Sudeste 0 1001.1 -- 65
2020-11-08 10:00:00 18.4 4 Sudeste 10 Este 0 1001 -- 68
2020-11-08 09:00:00 16.3 3 Este 7 Este 0 1000.8 -- 76
2020-11-08 08:00:00 15.9 5 Este 8 Este 0 1000.3 -- 76
2020-11-08 07:00:00 15.5 3 Este 8 Sudeste 0 1000.1 -- 80
2020-11-08 06:00:00 15.6 3 Este 7 Este 0 1000.1 -- 81
2020-11-08 05:00:00 15.5 3 Este 11 Sudeste 0 1000 -- 84
2020-11-08 04:00:00 15.3 4 Este 10 Sudeste 0 1000.3 -- 85
2020-11-08 03:00:00 15.3 4 Nordeste 7 Este 0 1000.4 -- 87
2020-11-08 02:00:00 16 4 Este 12 Sudeste 0 1000.5 -- 88
2020-11-08 01:00:00 16.2 5 Sudeste 13 Sudeste 0 1001 -- 88
2020-11-08 00:00:00 16.3 6 Sudeste 13 Sudeste 0 1001.3 -- 86
2020-11-07 23:00:00 16.2 2 Sudeste 9 Sudeste 0 1001.4 -- 84
2020-11-07 22:00:00 16.5 4 Este 7 Este 0 1001.4 -- 82
2020-11-07 21:00:00 17.4 0 Calma 6 Sur 0 1001.2 -- 82
2020-11-07 20:00:00 17.6 3 Sur 9 Sur 0 1001.1 -- 77
2020-11-07 19:00:00 18 5 Sur 10 Sudeste 0 1000.6 -- 82
2020-11-07 18:00:00 19.1 5 Sur 18 Sudoeste 0 1000.4 -- 70
2020-11-07 17:00:00 20.6 11 Sudoeste 20 Sudoeste 0 1000.2 -- 63
2020-11-07 16:00:00 20.7 12 Sudoeste 26 Sudoeste 0 1000.2 -- 62
2020-11-07 15:00:00 21.1 15 Sudoeste 29 Sudoeste 0 1000 -- 60
2020-11-07 14:00:00 21 14 Sudoeste 30 Sudoeste 0 1000.1 -- 60
2020-11-07 13:00:00 20.3 14 Oeste 29 Oeste 0 1000.3 -- 66
2020-11-07 12:00:00 20 18 Sudoeste 30 Sudoeste 0 1000.2 -- 65
2020-11-07 11:00:00 19.3 17 Sudoeste 30 Sudoeste 0 999.7 -- 64
2020-11-07 10:00:00 18.7 15 Oeste 30 Oeste 0 998.9 -- 69
2020-11-07 09:00:00 17.7 16 Sudoeste 31 Sudoeste 0 998 -- 76
2020-11-07 08:00:00 16.1 16 Oeste 36 Oeste 0 996.8 -- 79
2020-11-07 07:00:00 16.8 23 Sudoeste 44 Sudoeste 0 995.3 -- 78
2020-11-07 06:00:00 17.4 22 Sudoeste 44 Sudoeste 0 994.2 -- 77
2020-11-07 05:00:00 17.2 26 Sudoeste 40 Sudoeste 0.2 993.3 -- 82
2020-11-07 04:00:00 16.2 17 Sur 35 Sur 0.3 992.4 -- 86
2020-11-07 03:00:00 16.1 17 Sur 44 Sur 0 992.7 -- 84
2020-11-07 02:00:00 14.5 17 Sudoeste 52 Sudoeste 3.7 992.3 -- 81
2020-11-07 01:00:00 18.7 22 Sur 44 Sudoeste 0 992.2 -- 68
2020-11-07 00:00:00 19.2 17 Sur 37 Sur 0 992.3 -- 66
2020-11-06 23:00:00 18.5 14 Sur 34 Sur 0 992 -- 70
2020-11-06 22:00:00 18.3 16 Sudeste 34 Sudeste 0 990.6 -- 66
2020-11-06 21:00:00 17.6 14 Sudeste 27 Sudeste 0.1 991 -- 78
2020-11-06 20:00:00 18.1 8 Sur 18 Sudeste 0 992 -- 78
2020-11-06 19:00:00 18.6 4 Sudeste 15 Sudoeste 0 991.1 -- 68
2020-11-06 18:00:00 19.2 9 Sudoeste 25 Sudoeste 0 991.2 -- 63
2020-11-06 17:00:00 19.8 7 Sudoeste 22 Sur 0 990.7 -- 73
2020-11-06 16:00:00 21 10 Sur 31 Sudoeste 0 990.4 -- 69
2020-11-06 15:00:00 21.4 13 Sur 23 Sur 0 990.3 -- 68
2020-11-06 14:00:00 22.9 9 Sudeste 19 Este 0 989.9 -- 61
2020-11-06 13:00:00 22.5 8 Sudeste 18 Este 0 990 -- 61
2020-11-06 12:00:00 22.5 7 Este 18 Sudeste 0 990.1 -- 62
2020-11-06 11:00:00 21.6 8 Sudeste 19 Este 0 990 2 66
2020-11-06 10:00:00 20.4 10 Este 28 Sudeste 0 989.6 -- 68
2020-11-06 09:00:00 19.3 11 Sudeste 28 Este 0 988.9 -- 70
2020-11-06 08:00:00 18.8 13 Este 35 Este 0 988 -- 71
2020-11-06 07:00:00 18.4 12 Este 24 Este 0 987.9 -- 71
2020-11-06 06:00:00 18.6 8 Este 17 Este 0 989 -- 69
2020-11-06 05:00:00 18.7 9 Este 23 Sudeste 0 989 -- 68
2020-11-06 04:00:00 18.4 12 Este 23 Este 0 989.3 -- 69
2020-11-06 03:00:00 18.8 10 Este 21 Este 0 990.2 -- 69
2020-11-06 02:00:00 18.6 5 Este 15 Sudeste 0.1 991.3 -- 72
2020-11-06 01:00:00 18.9 9 Este 30 Este 0 991.2 -- 71
2020-11-06 00:00:00 18.9 9 Este 33 Este 0 991.7 -- 74
2020-11-05 23:00:00 18.9 9 Este 32 Este 0 991.6 -- 72
2020-11-05 22:00:00 19 13 Este 36 Este 0 991.1 -- 72
2020-11-05 21:00:00 19.1 19 Este 45 Este 0 990.5 -- 67
2020-11-05 20:00:00 18.5 15 Este 37 Este 0 990.2 -- 75
2020-11-05 19:00:00 18.6 12 Este 31 Sudeste 0 990.1 -- 77
2020-11-05 18:00:00 19.9 13 Sudeste 30 Sudeste 0 989.6 -- 70
2020-11-05 17:00:00 21.2 14 Este 33 Este 0 989 -- 64
2020-11-05 16:00:00 21.8 16 Este 40 Este 0 988.6 -- 58
2020-11-05 15:00:00 23.8 13 Este 32 Este 0 988.6 -- 49
2020-11-05 14:00:00 23.9 14 Sudeste 39 Este 0 989.5 -- 41
2020-11-05 13:00:00 23.2 13 Sudeste 31 Sudeste 0 990.1 -- 44
2020-11-05 12:00:00 21.2 15 Sudeste 38 Sudeste 0 990.9 -- 54
2020-11-05 11:00:00 17.7 11 Sudeste 27 Sudeste 0 991.2 -- 68
2020-11-05 10:00:00 16.3 11 Sudeste 35 Sudeste 0 991.4 -- 71
2020-11-05 09:00:00 16.3 17 Sudeste 33 Sudeste 0 990.9 -- 74
2020-11-05 08:00:00 15.6 14 Sudeste 34 Sudeste 0.1 990.2 -- 82
2020-11-05 07:00:00 15.1 14 Sudeste 31 Sudeste 0.2 990.1 -- 85
2020-11-05 06:00:00 15.2 15 Sudeste 32 Sur 0.3 989.7 -- 86
2020-11-05 05:00:00 14.7 15 Sur 47 Sur 2 989.2 -- 91
2020-11-05 04:00:00 14.6 19 Sur 45 Sur 1.7 988.7 -- 92
2020-11-05 03:00:00 14.6 12 Sudeste 28 Sudeste 2.2 988.8 -- 91
2020-11-05 02:00:00 14.7 9 Sudeste 21 Sudeste 0.5 988.7 -- 89
2020-11-05 01:00:00 15.2 12 Sudeste 32 Sudeste 0.2 988.5 -- 88
2020-11-05 00:00:00 16.1 14 Sudeste 38 Este 0.1 989.4 -- 83
2020-11-04 23:00:00 17.1 16 Sudeste 32 Este 0 989.7 -- 81
2020-11-04 22:00:00 16 16 Sudeste 33 Este 0 989.2 -- 80
2020-11-04 21:00:00 16 12 Este 26 Sudeste 0.1 989.7 -- 79
2020-11-04 20:00:00 15.9 12 Este 30 Este 0 990.3 -- 82
2020-11-04 19:00:00 17 14 Este 23 Este 0.1 990.1 -- 81
2020-11-04 18:00:00 18 10 Este 24 Este 0 990.4 -- 71
2020-11-04 17:00:00 19 12 Este 26 Sudeste 0 991.2 -- 68
2020-11-04 16:00:00 20.2 8 Este 32 Sur 0 991.6 -- 65
2020-11-04 15:00:00 21.1 13 Sudeste 30 Sur 0 992.2 -- 60
2020-11-04 14:00:00 20.8 12 Sudeste 31 Sudeste 0 993.2 -- 65
2020-11-04 13:00:00 19 10 Este 24 Sudeste 0.4 994.2 -- 78
2020-11-04 12:00:00 17.4 10 Sudeste 24 Este 0.4 994.9 -- 78
2020-11-04 11:00:00 17.9 11 Este 24 Sudeste 0 995.4 -0.7 70
2020-11-04 10:00:00 17.4 9 Este 26 Este 0 995.8 -- 73
2020-11-04 09:00:00 16 12 Este 24 Este 0 995.6 -- 78
2020-11-04 08:00:00 15.6 10 Este 22 Este 0 996.1 -- 82
2020-11-04 07:00:00 15.9 13 Este 38 Este 0 996.2 -- 80
2020-11-04 06:00:00 15.9 17 Este 33 Este 0 996.7 -- 82
2020-11-04 05:00:00 16 15 Este 33 Este 0 997.2 -- 80
2020-11-04 04:00:00 15.6 10 Este 25 Este 0 997.8 -- 81
2020-11-04 03:00:00 15.7 10 Este 21 Este 0 998 -- 82
2020-11-04 02:00:00 15.7 9 Este 20 Este 0 998.5 -- 83
2020-11-04 01:00:00 16 8 Este 14 Este 0 999.1 -- 83
2020-11-04 00:00:00 15.6 6 Este 13 Sudeste 0 999.7 -- 83
2020-11-03 23:00:00 17.5 5 Sudeste 8 Sudeste 0 1000 -- 85
2020-11-03 22:00:00 18 2 Sur 5 Sudeste 0 1000.2 -- 81
2020-11-03 21:00:00 18.2 2 Sudeste 5 Este 0 1000.1 -- 81
2020-11-03 20:00:00 18.4 3 Este 8 Norte 0 1000 -- 79
2020-11-03 19:00:00 19.2 3 Norte 8 Oeste 0 999.8 -- 77
2020-11-03 18:00:00 19.3 5 Oeste 14 Oeste 0 999.9 -- 76
2020-11-03 17:00:00 20.3 9 Oeste 18 Sudoeste 0 999.9 -- 70
2020-11-03 16:00:00 21.6 12 Sudoeste 20 Sudoeste 0 999.7 -- 58
2020-11-03 15:00:00 22.5 12 Oeste 21 Oeste 0 999.9 -- 60
2020-11-03 14:00:00 22.9 5 Sudoeste 14 Sudoeste 0 1000.2 -- 56
2020-11-03 13:00:00 22.4 5 Sudoeste 12 Sudoeste 0 1000.8 -- 59
2020-11-03 12:00:00 21.1 4 Sudoeste 17 Sudoeste 0 1001.3 -- 61
2020-11-03 11:00:00 20.2 9 Oeste 22 Oeste 0 1001.1 -- 69
2020-11-03 10:00:00 18.4 6 Oeste 13 Oeste 0 1000.8 -- 75
2020-11-03 09:00:00 16 5 Oeste 13 Oeste 0 1000.5 -- 81
2020-11-03 08:00:00 16.2 2 Norte 7 Norte 0 999.7 -- 58
2020-11-03 07:00:00 16 4 Nordeste 8 Nordeste 0 999.4 -- 65
2020-11-03 06:00:00 17.9 4 Nordeste 6 Este 0 999.6 -- 55
2020-11-03 05:00:00 18.2 3 Nordeste 8 Nordeste 0 999.4 -- 49
2020-11-03 04:00:00 18.2 4 Nordeste 8 Nordeste 0 999.4 -- 52
2020-11-03 03:00:00 18.4 3 Nordeste 8 Nordeste 0 999.7 -- 56
2020-11-03 02:00:00 18.8 3 Nordeste 9 Nordeste 0 999.7 -- 51
2020-11-03 01:00:00 18.5 4 Nordeste 8 Este 0 1000 -- 57
2020-11-03 00:00:00 18.3 5 Este 9 Nordeste 0 1000.2 -- 65
2020-11-02 23:00:00 19.1 4 Nordeste 7 Este 0 1000.5 -- 55
2020-11-02 22:00:00 19.4 2 Nordeste 7 Este 0 1000.3 -- 52
2020-11-02 21:00:00 19.6 4 Este 12 Este 0 1000.2 -- 53
2020-11-02 20:00:00 19.7 6 Este 12 Este 0 1000 -- 50
2020-11-02 19:00:00 21.2 5 Este 14 Este 0 999.3 -- 50
2020-11-02 18:00:00 23.5 4 Este 19 Nordeste 0 999 -- 38
2020-11-02 17:00:00 25.6 6 Este 20 Este 0 999 -- 32
2020-11-02 16:00:00 26.6 8 Este 17 Este 0 998.8 -- 34
2020-11-02 15:00:00 26.6 8 Este 21 Este 0 999.1 -- 35
2020-11-02 14:00:00 26.3 6 Este 15 Sudeste 0 999.6 -- 36
2020-11-02 13:00:00 25.2 5 Nordeste 22 Este 0 1000.3 -- 43
2020-11-02 12:00:00 23.3 9 Este 20 Sudeste 0 1000.6 -- 46
2020-11-02 11:00:00 21.3 9 Este 20 Este 0 1000.8 -- 54
2020-11-02 10:00:00 18.9 8 Este 16 Nordeste 0 1000.4 -- 61
2020-11-02 09:00:00 16.1 8 Nordeste 17 Nordeste 0 999.9 -- 66
2020-11-02 08:00:00 16.3 8 Nordeste 18 Este 0 999.4 -- 65
2020-11-02 07:00:00 16 8 Nordeste 15 Nordeste 0 999.2 -- 61
2020-11-02 06:00:00 17.5 8 Nordeste 18 Este 0 999 -- 58
2020-11-02 05:00:00 17.9 10 Nordeste 20 Nordeste 0 999 -- 54
2020-11-02 04:00:00 17.7 8 Nordeste 16 Nordeste 0 999 -- 55
2020-11-02 03:00:00 17.4 10 Nordeste 17 Nordeste 0 999.4 -- 59
2020-11-02 02:00:00 17.2 9 Nordeste 15 Este 0 999.7 -- 61
2020-11-02 01:00:00 17.7 8 Nordeste 15 Este 0 1000.1 -- 62
2020-11-02 00:00:00 17.9 7 Nordeste 12 Nordeste 0 1000.5 -- 62
2020-11-01 23:00:00 18.7 5 Nordeste 8 Nordeste 0 1000.8 -- 69
2020-11-01 22:00:00 19.3 5 Este 8 Este 0 1001 -- 64
2020-11-01 21:00:00 20.3 0 Calma 6 Norte 0 1000.8 -- 59
2020-11-01 20:00:00 20.9 4 Norte 5 Norte 0 1000.7 -- 56
2020-11-01 19:00:00 20.1 3 Este 10 Oeste 0 1000.6 -- 64
2020-11-01 18:00:00 21.5 7 Oeste 14 Oeste 0 1000.3 -- 59
2020-11-01 17:00:00 24.1 8 Oeste 15 Oeste 0 1000.4 -- 56
2020-11-01 16:00:00 25 6 Oeste 15 Oeste 0 1000.6 -- 53
2020-11-01 15:00:00 24 9 Oeste 18 Oeste 0 1001 -- 56
2020-11-01 14:00:00 23.6 9 Oeste 17 Oeste 0 1001.6 -- 58
2020-11-01 13:00:00 23.3 10 Oeste 18 Oeste 0 1002.2 -- 58
2020-11-01 12:00:00 23.3 3 Sudoeste 8 Sudoeste 0 1002.8 -- 56
2020-11-01 11:00:00 21.6 4 Sudoeste 7 Oeste 0 1002.9 -- 61
2020-11-01 10:00:00 18.9 4 Oeste 6 Oeste 0 1002.7 -- 70
2020-11-01 09:00:00 16.1 3 Oeste 6 Oeste 0 1002.2 -- 71
2020-11-01 08:00:00 16.2 0 Calma 7 Oeste 0 1001.6 -- 70
2020-11-01 07:00:00 16.3 0 Calma 4 Oeste 0 1001.3 -- 74
2020-11-01 06:00:00 16.1 0 Calma 9 Norte 0 1001.2 -- 72
2020-11-01 05:00:00 18.1 8 Norte 13 Norte 0 1001.5 -- 65
2020-11-01 04:00:00 16.2 2 Nordeste 5 Este 0 1002.1 -- 73
2020-11-01 03:00:00 16.5 2 Nordeste 7 Nordeste 0 1002.3 -- 74
2020-11-01 02:00:00 17.5 3 Nordeste 9 Nordeste 0 1002.4 -- 70
2020-11-01 01:00:00 18.3 3 Nordeste 9 Norte 0 1002.6 -- 67
2020-11-01 00:00:00 18.3 4 Nordeste 13 Norte 0 1003 -- 65
2020-10-31 23:00:00 18.8 7 Norte 15 Norte 0 1003.1 -- 64
2020-10-31 22:00:00 18.9 5 Noroeste 12 Norte 0 1003 -- 63
2020-10-31 21:00:00 19.4 6 Noroeste 15 Oeste 0 1002.7 -- 55
2020-10-31 20:00:00 18.8 6 Noroeste 10 Noroeste 0 1002.1 -- 64
2020-10-31 19:00:00 20.7 5 Noroeste 12 Oeste 0 1001.7 -- 58
2020-10-31 18:00:00 20.9 6 Oeste 18 Oeste 0 1001.7 -- 60
2020-10-31 17:00:00 22 9 Oeste 23 Oeste 0 1001.8 -- 58
2020-10-31 16:00:00 23.4 14 Oeste 27 Oeste 0 1001.7 -- 52
2020-10-31 15:00:00 25.7 8 Oeste 15 Oeste 0 1001.8 -- 50
2020-10-31 14:00:00 25.8 3 Norte 12 Este 0 1002.5 -- 40
2020-10-31 13:00:00 24.7 2 Noroeste 9 Norte 0 1003.4 -- 47
2020-10-31 12:00:00 23 3 Norte 13 Norte 0 1004 -- 50
2020-10-31 11:00:00 21.9 5 Este 11 Este 0 1003.5 -- 57
2020-10-31 10:00:00 19.3 4 Este 12 Sudeste 0 1003.5 -- 68
2020-10-31 09:00:00 16.3 6 Nordeste 13 Nordeste 0 1003 -- 76
2020-10-31 08:00:00 16.1 5 Nordeste 14 Nordeste 0 1002.4 -- 78
2020-10-31 07:00:00 16.4 7 Este 17 Este 0 1001.9 -- 76
2020-10-31 06:00:00 16 7 Este 15 Nordeste 0 1001.5 -- 79
2020-10-31 05:00:00 16.1 6 Este 18 Este 0 1001.6 -- 79
2020-10-31 04:00:00 16.1 9 Este 25 Este 0 1001.1 -- 79
2020-10-31 03:00:00 16.1 6 Este 31 Este 0 1001.7 -- 77
2020-10-31 02:00:00 16.5 10 Este 23 Este 0 1001.7 -- 75
2020-10-31 01:00:00 17.2 9 Este 23 Este 0 1001.7 -- 73
2020-10-31 00:00:00 17.7 12 Este 28 Este 0 1001.6 -- 71
2020-10-30 23:00:00 17.9 12 Este 30 Este 0 1001.4 -- 67
2020-10-30 22:00:00 18.1 10 Este 30 Este 0 1001.4 -- 64
2020-10-30 21:00:00 18.5 11 Este 24 Este 0 1001.2 -- 63
2020-10-30 20:00:00 18.7 12 Este 27 Este 0 1001 -- 62
2020-10-30 19:00:00 19.3 15 Este 32 Este 0 1000.6 -- 57
2020-10-30 18:00:00 20.2 14 Este 33 Este 0 1000.4 -- 55
2020-10-30 17:00:00 21.6 15 Este 35 Este 0 1000.4 -- 50
2020-10-30 16:00:00 22.2 17 Este 39 Este 0 1000.3 -- 45
2020-10-30 15:00:00 23.7 15 Este 38 Este 0 1000.4 -- 44
2020-10-30 14:00:00 22.1 17 Este 39 Este 0 1000.7 -- 45
2020-10-30 13:00:00 23.6 18 Este 40 Este 0 1001.1 -- 42
2020-10-30 12:00:00 22 17 Este 42 Sudeste 0 1001.7 -- 47
2020-10-30 11:00:00 22.4 16 Este 38 Este 0 1001.8 -- 50
2020-10-30 10:00:00 19.7 15 Este 33 Este 0 1001.7 -- 62
2020-10-30 09:00:00 17.6 15 Este 38 Este 0 1001.1 -- 71
2020-10-30 08:00:00 16.3 13 Este 33 Este 0 1000.6 -- 69
2020-10-30 07:00:00 16 13 Este 38 Este 0 1000.4 -- 59
2020-10-30 06:00:00 16.9 16 Este 39 Este 0 1000.3 -- 56
2020-10-30 05:00:00 17.6 18 Este 40 Este 0 1000.1 -- 48
2020-10-30 04:00:00 17.8 18 Este 43 Este 0 1000.2 -- 45
2020-10-30 03:00:00 18.1 18 Este 45 Este 0 1000.5 -- 42
2020-10-30 02:00:00 18.1 15 Este 42 Este 0 1000.4 -- 39
2020-10-30 01:00:00 18.7 21 Este 46 Este 0 1000.7 -- 38
2020-10-30 00:00:00 18 18 Este 40 Este 0 1000.8 -- 41
2020-10-29 23:00:00 17.7 13 Este 35 Este 0 1000.9 -- 41
2020-10-29 22:00:00 18.2 15 Este 37 Este 0 1000.9 -- 41
2020-10-29 21:00:00 18 15 Este 38 Este 0 1000.5 -- 37
2020-10-29 20:00:00 18.5 15 Este 41 Este 0 1000.6 -- 35
2020-10-29 19:00:00 19.2 14 Este 37 Este 0 1000.3 -- 32
2020-10-29 18:00:00 20.9 13 Este 39 Este 0 1000.2 -- 26
2020-10-29 17:00:00 22.4 19 Este 44 Este 0 1000 -- 23
2020-10-29 16:00:00 23.9 17 Este 45 Este 0 999.8 -- 24
2020-10-29 15:00:00 24.3 17 Este 38 Este 0 1000 -- 25
2020-10-29 14:00:00 24 16 Este 41 Este 0 1000.7 -- 29
2020-10-29 13:00:00 23.5 17 Este 39 Este 0 1001.5 -- 33
2020-10-29 12:00:00 22.7 14 Este 39 Este 0 1002 -- 35
2020-10-29 11:00:00 20.9 13 Este 32 Este 0 1002.1 -- 42
2020-10-29 10:00:00 18.2 12 Este 27 Sudeste 0 1001.8 -- 57
2020-10-29 09:00:00 15.3 9 Este 18 Este 0 1001.7 -- 68
2020-10-29 08:00:00 14.2 8 Este 17 Este 0 1001 -- 68
2020-10-29 07:00:00 14.5 8 Nordeste 15 Nordeste 0 1000.7 -- 65
2020-10-29 06:00:00 14.8 6 Nordeste 15 Este 0 1000.4 -- 65
2020-10-29 05:00:00 14.8 9 Este 19 Este 0 1000.2 -- 63
2020-10-29 04:00:00 15.3 8 Nordeste 15 Nordeste 0 1000.1 -- 53
2020-10-29 03:00:00 15.5 6 Nordeste 10 Nordeste 0 1000.3 -- 53
2020-10-29 02:00:00 15.6 5 Nordeste 12 Este 0 1000.5 -- 54
2020-10-29 01:00:00 16.1 4 Nordeste 9 Nordeste 0 1000.7 -- 54
2020-10-29 00:00:00 15.9 5 Este 7 Este 0 1000.9 -- 63
2020-10-28 23:00:00 18 2 Nordeste 13 Norte 0 1001.1 -- 60
2020-10-28 22:00:00 18.3 2 Noroeste 7 Norte 0 1001 -- 58
2020-10-28 21:00:00 19 3 Norte 6 Norte 0 1000.8 -- 56
2020-10-28 20:00:00 19.4 0 Calma 6 Norte 0 1000.3 -- 54
2020-10-28 19:00:00 20.1 0 Calma 8 Norte 0 999.8 -- 49
2020-10-28 18:00:00 22 3 Nordeste 17 Norte 0 999.4 -- 42
2020-10-28 17:00:00 24.6 3 Norte 12 Sudeste 0 999.4 -- 40
2020-10-28 16:00:00 25 5 Norte 14 Norte 0 999.2 -- 39
2020-10-28 15:00:00 25.2 3 Norte 13 Norte 0 999.4 -- 29
2020-10-28 14:00:00 24.2 0 Calma 14 Este 0 999.7 -- 34
2020-10-28 13:00:00 22.2 3 Nordeste 12 Norte 0 1000.3 -- 40
2020-10-28 12:00:00 20.6 4 Norte 15 Norte 0 1000.8 -- 42
2020-10-28 11:00:00 18.2 6 Norte 15 Norte 0 1000.4 -- 51
2020-10-28 10:00:00 16.1 7 Norte 22 Norte 0 1000 -- 54
2020-10-28 09:00:00 15.7 10 Norte 23 Norte 0 999.5 -- 53
2020-10-28 08:00:00 14.8 11 Norte 25 Norte 0 998.9 -- 55
2020-10-28 07:00:00 14.4 12 Norte 22 Norte 0 998.7 -- 58
2020-10-28 06:00:00 14.1 12 Norte 23 Norte 0 998.6 -- 60
2020-10-28 05:00:00 14.3 9 Norte 21 Norte 0 998.6 -- 64
2020-10-28 04:00:00 14.2 9 Norte 20 Norte 0 998.6 -- 71
2020-10-28 03:00:00 14.5 6 Norte 18 Norte 0 998.7 -- 76
2020-10-28 02:00:00 15.1 7 Noroeste 17 Norte 0 999 -- 74
2020-10-28 01:00:00 15.1 8 Noroeste 18 Noroeste 0 999.2 -- 73
2020-10-28 00:00:00 15 8 Noroeste 18 Noroeste 0 999.5 -- 71